createdAt,value
2022-10-05T00:01:34.740Z,3.92
2022-10-05T00:04:23.242Z,3.30
2022-10-05T00:06:59.364Z,5.63
2022-10-05T00:09:26.070Z,6.22
2022-10-05T00:11:52.546Z,5.43
2022-10-05T00:14:23.096Z,5.50
2022-10-05T00:16:50.166Z,4.55
2022-10-05T00:19:44.371Z,4.07
2022-10-05T00:22:16.316Z,4.45
2022-10-05T00:24:51.817Z,3.78
2022-10-05T00:27:24.998Z,5.00
2022-10-05T00:29:59.697Z,5.20
2022-10-05T00:32:27.015Z,5.47
2022-10-05T00:34:57.205Z,7.53
2022-10-05T00:37:23.981Z,9.93
2022-10-05T00:39:50.539Z,7.38
2022-10-05T00:42:27.567Z,5.78
2022-10-05T00:44:56.802Z,7.28
2022-10-05T00:47:41.623Z,8.52
2022-10-05T00:50:25.433Z,5.82
2022-10-05T00:53:05.714Z,5.95
2022-10-05T00:55:57.587Z,4.97
2022-10-05T00:59:12.042Z,7.75
2022-10-05T01:01:50.305Z,5.20
2022-10-05T01:04:28.562Z,4.63
2022-10-05T01:06:55.265Z,4.72
2022-10-05T01:10:03.067Z,4.57
2022-10-05T01:12:40.229Z,5.22
2022-10-05T01:15:32.026Z,7.40
2022-10-05T01:18:26.015Z,3.80
2022-10-05T01:21:09.022Z,3.88
2022-10-05T01:23:57.014Z,3.50
2022-10-05T01:27:00.623Z,3.78
2022-10-05T01:29:48.300Z,6.68
2022-10-05T01:32:26.220Z,4.55
2022-10-05T01:35:43.893Z,4.50
2022-10-05T01:41:19.675Z,7.22
2022-10-05T01:43:58.485Z,5.35
2022-10-05T01:46:39.299Z,9.05
2022-10-05T01:49:37.022Z,8.32
2022-10-05T01:52:24.938Z,11.52
2022-10-05T01:55:19.513Z,8.15
2022-10-05T01:58:16.734Z,7.13
2022-10-05T02:01:09.752Z,10.95
2022-10-05T02:03:43.182Z,6.10
2022-10-05T02:06:34.203Z,5.88
2022-10-05T02:09:20.303Z,6.00
2022-10-05T02:11:52.463Z,7.40
2022-10-05T02:14:24.585Z,8.45
2022-10-05T02:16:57.399Z,10.80
2022-10-05T02:19:36.003Z,7.38
2022-10-05T02:22:07.282Z,7.47
2022-10-05T02:24:43.496Z,12.88
2022-10-05T02:27:15.329Z,10.93
2022-10-05T02:29:47.184Z,12.40
2022-10-05T02:32:22.694Z,10.40
2022-10-05T02:34:49.957Z,16.05
2022-10-05T02:37:46.548Z,12.80
2022-10-05T02:40:45.068Z,13.52
2022-10-05T02:43:13.620Z,16.27
2022-10-05T02:45:50.893Z,19.30
2022-10-05T02:48:46.865Z,18.88
2022-10-05T02:51:58.294Z,13.47
2022-10-05T02:54:43.447Z,12.52
2022-10-05T02:57:31.243Z,8.35
2022-10-05T03:00:15.142Z,9.02
2022-10-05T03:02:48.800Z,9.00
2022-10-05T03:05:46.060Z,6.80
2022-10-05T03:08:24.986Z,7.65
2022-10-05T03:11:41.315Z,7.43
2022-10-05T03:14:26.575Z,12.82
2022-10-05T03:17:14.416Z,14.45
2022-10-05T03:20:04.101Z,14.30
2022-10-05T03:22:53.334Z,15.57
2022-10-05T03:25:45.392Z,14.75
2022-10-05T03:28:27.689Z,12.38
2022-10-05T03:31:41.846Z,14.57
2022-10-05T03:34:18.503Z,12.18
2022-10-05T03:37:10.494Z,13.90
2022-10-05T03:39:47.205Z,16.75
2022-10-05T03:42:37.853Z,16.33
2022-10-05T03:45:08.864Z,18.02
2022-10-05T03:48:01.090Z,15.05
2022-10-05T03:50:42.490Z,14.77
2022-10-05T03:53:19.889Z,16.40
2022-10-05T03:55:53.677Z,12.18
2022-10-05T03:58:28.101Z,13.05
2022-10-05T04:01:00.862Z,11.38
2022-10-05T04:03:36.685Z,11.43
2022-10-05T04:09:00.245Z,13.40
2022-10-05T04:14:11.153Z,12.68
2022-10-05T04:16:45.880Z,12.23
2022-10-05T04:19:24.614Z,10.27
2022-10-05T04:22:16.276Z,12.13
2022-10-05T04:24:56.178Z,16.02
2022-10-05T04:27:29.644Z,12.07
2022-10-05T04:30:05.264Z,10.23
2022-10-05T04:32:44.134Z,11.88
2022-10-05T04:35:45.680Z,11.50
2022-10-05T04:38:39.467Z,9.85
2022-10-05T04:41:29.295Z,16.23
2022-10-05T04:44:09.655Z,12.07
2022-10-05T04:46:48.574Z,17.85
2022-10-05T04:50:11.497Z,10.00
2022-10-05T04:52:53.095Z,12.60
2022-10-05T04:55:27.188Z,10.70
2022-10-05T04:58:12.011Z,8.65
2022-10-05T05:01:08.449Z,9.38
2022-10-05T05:03:41.231Z,7.97
2022-10-05T05:06:17.351Z,9.90
2022-10-05T05:09:08.995Z,8.05
2022-10-05T05:11:59.419Z,13.25
2022-10-05T05:14:40.982Z,11.95
2022-10-05T05:17:32.858Z,8.75
2022-10-05T05:20:43.875Z,12.20
2022-10-05T05:23:19.479Z,8.48
2022-10-05T05:26:25.162Z,11.68
2022-10-05T05:28:59.816Z,8.00
2022-10-05T05:31:46.513Z,9.32
2022-10-05T05:34:58.669Z,10.82
2022-10-05T05:38:13.213Z,10.90
2022-10-05T05:40:55.732Z,18.42
2022-10-05T05:43:32.284Z,7.97
2022-10-05T05:46:51.556Z,9.63
2022-10-05T05:49:27.421Z,10.77
2022-10-05T05:52:04.548Z,8.25
2022-10-05T05:54:37.870Z,11.15
2022-10-05T05:57:34.240Z,9.52
2022-10-05T06:00:05.660Z,9.32
2022-10-05T06:03:02.563Z,14.18
2022-10-05T06:05:38.154Z,9.55
2022-10-05T06:08:18.609Z,8.68
2022-10-05T06:11:00.512Z,8.85
2022-10-05T06:13:33.851Z,12.57
2022-10-05T06:16:15.110Z,11.50
2022-10-05T06:18:45.750Z,9.40
2022-10-05T06:21:24.260Z,11.75
2022-10-05T06:23:56.682Z,17.15
2022-10-05T06:27:00.833Z,13.13
2022-10-05T06:29:44.672Z,9.02
2022-10-05T06:32:31.075Z,9.98
2022-10-05T06:35:06.934Z,9.70
2022-10-05T06:40:09.612Z,15.95
2022-10-05T06:43:21.217Z,9.43
2022-10-05T06:46:04.134Z,11.93
2022-10-05T06:49:04.364Z,7.90
2022-10-05T06:51:38.687Z,8.02
2022-10-05T06:54:23.103Z,6.93
2022-10-05T06:57:06.659Z,5.18
2022-10-05T06:59:59.063Z,5.22
2022-10-05T07:02:32.734Z,3.78
2022-10-05T07:04:59.422Z,3.75
2022-10-05T07:07:55.601Z,3.72
2022-10-05T07:10:33.936Z,4.00
2022-10-05T07:13:06.632Z,4.13
2022-10-05T07:15:47.371Z,3.67
2022-10-05T07:18:39.880Z,3.33
2022-10-05T07:21:06.585Z,3.15
2022-10-05T07:23:46.059Z,3.72
2022-10-05T07:26:25.064Z,3.33
2022-10-05T07:29:17.271Z,3.58
2022-10-05T07:31:55.316Z,4.35
2022-10-05T07:34:32.594Z,3.35
2022-10-05T07:37:21.900Z,3.47
2022-10-05T07:40:11.266Z,4.60
2022-10-05T07:42:50.477Z,3.30
2022-10-05T07:45:38.245Z,4.28
2022-10-05T07:48:16.389Z,7.38
2022-10-05T07:50:52.079Z,3.55
2022-10-05T07:56:03.112Z,3.03
2022-10-05T07:58:37.979Z,3.90
2022-10-05T08:01:19.936Z,3.63
2022-10-05T08:04:12.907Z,4.80
2022-10-05T08:06:58.152Z,4.07
2022-10-05T08:09:36.892Z,5.63
2022-10-05T08:12:18.511Z,4.30
2022-10-05T08:15:13.921Z,6.10
2022-10-05T08:18:28.105Z,4.85
2022-10-05T08:20:57.888Z,5.18
2022-10-05T08:23:48.435Z,4.47
2022-10-05T08:26:54.619Z,4.38
2022-10-05T08:29:34.772Z,4.00
2022-10-05T08:32:12.545Z,4.72
2022-10-05T08:35:04.813Z,3.88
2022-10-05T08:37:37.293Z,4.85
2022-10-05T08:40:19.007Z,3.78
2022-10-05T08:43:08.334Z,4.97
2022-10-05T08:46:02.749Z,4.13
2022-10-05T08:49:10.031Z,5.85
2022-10-05T08:51:54.544Z,4.22
2022-10-05T08:54:52.261Z,4.82
2022-10-05T08:57:33.694Z,4.88
2022-10-05T09:00:25.635Z,8.98
2022-10-05T09:03:16.400Z,4.90
2022-10-05T09:06:04.765Z,5.28
2022-10-05T09:09:08.453Z,5.05
2022-10-05T09:11:44.889Z,4.80
2022-10-05T09:15:01.322Z,4.85
2022-10-05T09:18:11.219Z,5.72
2022-10-05T09:21:00.696Z,4.43
2022-10-05T09:23:40.367Z,4.38
2022-10-05T09:26:34.390Z,4.18
2022-10-05T09:29:38.984Z,6.05
2022-10-05T09:32:32.507Z,5.97
2022-10-05T09:35:17.580Z,5.10
2022-10-05T09:38:04.810Z,5.78
2022-10-05T09:40:47.711Z,5.63
2022-10-05T09:43:43.626Z,5.57
2022-10-05T09:46:43.078Z,9.05
2022-10-05T09:49:37.553Z,5.32
2022-10-05T09:52:28.001Z,6.03
2022-10-05T09:55:01.708Z,4.50
2022-10-05T09:57:52.392Z,4.78
2022-10-05T10:00:55.629Z,4.32
2022-10-05T10:04:07.073Z,4.80
2022-10-05T10:06:46.667Z,4.97
2022-10-05T10:09:26.997Z,6.55
2022-10-05T10:12:22.403Z,5.05
2022-10-05T10:15:19.156Z,4.90
2022-10-05T10:18:10.851Z,4.68
2022-10-05T10:21:16.103Z,5.63
2022-10-05T10:23:51.684Z,4.32
2022-10-05T10:29:15.293Z,5.45
2022-10-05T10:32:07.716Z,6.18
2022-10-05T10:34:43.940Z,4.32
2022-10-05T10:37:41.170Z,5.15
2022-10-05T10:40:11.658Z,5.07
2022-10-05T10:42:59.354Z,5.15
2022-10-05T10:45:32.384Z,6.72
2022-10-05T10:48:24.022Z,4.88
2022-10-05T10:51:12.575Z,7.03
2022-10-05T10:54:02.625Z,4.57
2022-10-05T10:56:41.428Z,4.07
2022-10-05T10:59:07.883Z,4.65
2022-10-05T11:02:03.283Z,11.32
2022-10-05T11:04:48.506Z,7.50
2022-10-05T11:07:52.432Z,5.95
2022-10-05T11:10:56.064Z,4.50
2022-10-05T11:13:38.553Z,6.15
2022-10-05T11:16:32.537Z,8.13
2022-10-05T11:19:14.467Z,4.95
2022-10-05T11:21:49.930Z,4.78
2022-10-05T11:24:39.062Z,5.03
2022-10-05T11:27:50.847Z,5.40
2022-10-05T11:31:07.401Z,6.32
2022-10-05T11:34:10.478Z,3.43
2022-10-05T11:37:01.672Z,6.50
2022-10-05T11:39:39.896Z,3.42
2022-10-05T11:42:08.559Z,4.75
2022-10-05T11:45:15.697Z,3.50
2022-10-05T11:48:33.165Z,3.20
2022-10-05T11:51:12.129Z,3.92
2022-10-05T11:53:55.148Z,4.20
2022-10-05T11:59:15.384Z,5.65
2022-10-05T12:02:25.239Z,4.07
2022-10-05T12:05:01.037Z,2.78
2022-10-05T12:07:52.323Z,2.75
2022-10-05T12:10:44.996Z,4.78
2022-10-05T12:13:22.362Z,2.67
2022-10-05T12:16:05.171Z,5.20
2022-10-05T12:18:31.653Z,3.08
2022-10-05T12:21:07.294Z,5.25
2022-10-05T12:23:40.098Z,2.33
2022-10-05T12:26:16.860Z,3.58
2022-10-05T12:28:49.904Z,3.00
2022-10-05T12:32:00.433Z,4.47
2022-10-05T12:34:42.213Z,2.25
2022-10-05T12:37:26.630Z,2.42
2022-10-05T12:39:58.991Z,2.75
2022-10-05T12:42:42.364Z,2.10
2022-10-05T12:45:33.130Z,3.17
2022-10-05T12:48:25.465Z,2.15
2022-10-05T12:51:07.724Z,2.70
2022-10-05T12:53:42.794Z,2.45
2022-10-05T12:56:17.913Z,2.22
2022-10-05T12:58:47.609Z,2.60
2022-10-05T13:01:36.104Z,1.42
2022-10-05T13:04:14.779Z,2.17
2022-10-05T13:07:13.948Z,1.25
2022-10-05T13:09:51.340Z,1.35
2022-10-05T13:12:44.773Z,2.00
2022-10-05T13:15:31.415Z,2.75
2022-10-05T13:18:16.864Z,2.75
2022-10-05T13:21:22.672Z,1.63
2022-10-05T13:24:04.675Z,0.80
2022-10-05T13:26:38.263Z,1.67
2022-10-05T13:29:19.119Z,2.97
2022-10-05T13:32:02.133Z,1.38
2022-10-05T13:34:41.130Z,0.88
2022-10-05T13:37:23.911Z,1.98
2022-10-05T13:39:55.776Z,0.90
